Charles City, IA (50616)

4:30 AM CDT on April 29, 2017 (GMT -0500)
Charles City Municipal | | Change Station

Elev 1122 ft 43.07 °N, 92.61 °W | Updated 15 minutes ago

Overcast
Overcast
39 °F
Feels Like 34 °F
N
8
Wind Variable Wind from ENE

Today
High -- | Low -- °F
--% Chance of Precip.
Yesterday
High -- | Low -- °F
Precip. -- in
Pressure 30.14 in
Visibility 10.0 miles
Clouds Scattered Clouds 16000 ft
Overcast 18000 ft
Windchill 34 °F
Dew Point 34 °F
Humidity 81%
Rainfall 0.00 in
Snow Depth Not available.
6:06 AM 8:09 PM
Waxing Crescent, 12% visible
METAR KCCY 290915Z AUTO 06007KT 10SM SCT160 OVC180 04/01 A3014 RMK AO2
Pressure 30.14 in
Visibility 10.0 miles
Clouds Scattered Clouds 16000 ft
Overcast 18000 ft
Windchill 34 °F
Dew Point 34 °F
Humidity 81%
Rainfall 0.00 in
Snow Depth Not available.
6:06 AM 8:09 PM
Waxing Crescent, 12% visible
METAR KCCY 290915Z AUTO 06007KT 10SM SCT160 OVC180 04/01 A3014 RMK AO2

Get Severe Weather Alerts

Thanks for signing up!

Be on the lookout for a verification email in your inbox.

You'll start receiving the daily forecast at 8 AM.

×

10-Day Weather Forecast

Almanac

Astronomy

Apr. 29, 2017 Rise Set
Actual Time
Civil Twilight
Nautical Twilight
Astronomical Twilight
Moon
Length of Visible Light
Length of Day
Tomorrow will be .
, % of the Moon is Illuminated

Today's Extremes

State Highs State Lows

Community

WunderPhotos

WunderBlog® & News

Nearby

Air Quality

  Air Quality AQ Index Pollutant
Not available.

Snow Depth

Station Depth Elevation

Earthquake Activity

City Distance Mag. Time & Date
Minimum magnitude displayed is 2.5.

Coastal Water Temperatures

Place Temperature

Stations

Nearby Weather Stations

Station Location Temp. Windchill Dew Point Humidity Wind Precip. Elev Updated Type
                   

Watches & Warnings

There are currently no watches in effect.